Miguel Oliver — ECLX — position and weather

sailwx.info

Track history (hours):
 
Tides and Currents Weather Stations Pressure Air Temp Water Temp Dewpoint Dewpoint Depression Visibility Wind Speed Wind Dir Waves Ship Positions

Oceanographic research ship Miguel Oliver (Spain)

Ship's website: http://www.mapa.es/es/pesca/pags/miguel_web/index.htm

Last reported at 2016-May-25 01:29 UTC. Time now 2016-May-26 04:44 UTC.
Position N 39°37' W 000°09'.

Length 70 m; draft 4.8 m.

Type: Other ship. MMSI: 225322000.

Date/timePositionNaut miles runAvg speedWind from/ knotsBaromVisibWave heightAir tempDewpointWater temp
2016-May-25 01:29N 39°37' W 000°09'  
2016-May-22 12:16N 39°02' E 000°23'10 1.7
2016-May-22 06:11N 38°52' E 000°21'1 1.9
2016-May-22 05:32N 38°51' E 000°21'5 0.7
2016-May-21 22:32N 38°50' E 000°15'4 0.7
2016-May-21 16:25N 38°45' E 000°15'3 2.9
2016-May-21 15:33N 38°44' E 000°18'5 4.9
2016-May-21 14:28N 38°40' E 000°13'41 2.6
2016-May-20 22:22N 38°51' E 001°04'8 0.3
2016-May-19 20:29N 38°45' E 001°12'12 1.0
2016-May-19 09:26N 38°51' E 000°59'8 1.1
2016-May-19 02:17N 38°47' E 001°08'1 1.5
2016-May-19 01:33N 38°47' E 001°09'1 0.9
2016-May-19 00:30N 38°46' E 001°08'1 0.9
2016-May-18 23:26N 38°45' E 001°07'3 4.0
2016-May-18 22:34N 38°43' E 001°04'5 5.2
2016-May-18 21:33N 38°38' E 001°02'6 5.7
2016-May-18 20:33N 38°32' E 001°00'9 6.3
2016-May-18 19:12N 38°32' E 000°49'22 4.8
2016-May-18 14:33N 38°18' E 000°27'3 2.9
2016-May-18 13:33N 38°21' E 000°29'5 5.0
2016-May-18 12:33N 38°25' E 000°27'2 2.5
2016-May-18 11:33N 38°28' E 000°28'3 3.1
2016-May-18 10:32N 38°31' E 000°29'1 0.8
2016-May-18 09:33N 38°31' E 000°29'10 2.0
2016-May-18 04:27N 38°28' E 000°17'12 1.4
2016-May-17 20:11N 38°33' E 000°04'1 0.9
2016-May-17 19:33N 38°32' E 000°04'1 0.9
2016-May-17 18:33N 38°31' E 000°04'1 1.0
2016-May-17 17:34N 38°31' E 000°05'5 4.7
2016-May-17 16:26N 38°26' E 000°08'21 1.7
2016-May-17 04:13N 38°24' W 000°19'2 0.3
2016-May-16 23:26N 38°24' W 000°17'0 0.3
2016-May-16 22:33N 38°24' W 000°16'0 0.2
2016-May-16 21:06N 38°24' W 000°16'1 0.3
2016-May-16 19:03N 38°24' W 000°15'0 0.3
2016-May-16 18:33N 38°24' W 000°15'3 3.0
2016-May-16 17:33N 38°21' W 000°14'6 6.2
2016-May-16 16:33N 38°15' W 000°10'7 6.3
2016-May-16 15:31N 38°10' W 000°06'4 3.7
2016-May-16 14:33N 38°08' W 000°03'1 0.7
2016-May-16 13:33N 38°08' W 000°02'3 3.2
2016-May-16 12:31N 38°07' W 000°06'7 5.8
2016-May-16 11:23N 38°06' W 000°14'2 1.7
2016-May-16 10:13N 38°07' W 000°12'2 1.4
2016-May-16 08:31N 38°09' W 000°14'4 3.3
2016-May-16 07:24N 38°13' W 000°14'4 1.4
2016-May-16 04:31N 38°17' W 000°15'0 0.4
2016-May-16 03:33N 38°17' W 000°14'0 0.3
2016-May-16 02:23N 38°17' W 000°14'1 0.3
2016-May-15 23:33N 38°18' W 000°15'1 0.5
2016-May-15 22:33N 38°18' W 000°16'1 0.5
2016-May-15 21:33N 38°18' W 000°16'0 0.5
2016-May-15 20:33N 38°18' W 000°17'2 2.1
2016-May-15 19:33N 38°17' W 000°14'6 5.7
2016-May-15 18:33N 38°14' W 000°09'7 6.3
2016-May-15 17:30N 38°10' W 000°02'5 5.5
2016-May-15 16:33N 38°06' E 000°03'1 1.0
2016-May-15 15:33N 38°06' E 000°02'1 0.7
2016-May-15 14:32N 38°05' E 000°01'3 2.9
2016-May-15 13:33N 38°04' W 000°02'14 1.9
2016-May-15 06:03N 38°01' W 000°20'2 3.1
2016-May-15 05:23N 37°60' W 000°22'4 5.1
2016-May-15 04:33N 37°59' W 000°27'0 0.3
2016-May-15 03:33N 37°59' W 000°27'1 0.5
2016-May-15 02:33N 37°60' W 000°28'1 0.6
2016-May-15 01:33N 37°60' W 000°28'  
Track history (hours):
 
Tides and Currents Weather Stations Pressure Air Temp Water Temp Dewpoint Dewpoint Depression Visibility Wind Speed Wind Dir Waves Ship Positions

Oceanographic research ship Miguel Oliver (Spain)

Ship's website: http://www.mapa.es/es/pesca/pags/miguel_web/index.htm

Last reported at 2016-May-25 01:29 UTC. Time now 2016-May-26 04:44 UTC.
Position N 39°37' W 000°09'.

Length 70 m; draft 4.8 m.

Type: Other ship. MMSI: 225322000.

Date/timePositionNaut miles runAvg speedWind from/ knotsBaromVisibWave heightAir tempDewpointWater temp
2016-May-25 01:29N 39°37' W 000°09'  
2016-May-22 12:16N 39°02' E 000°23'10 1.7
2016-May-22 06:11N 38°52' E 000°21'1 1.9
2016-May-22 05:32N 38°51' E 000°21'5 0.7
2016-May-21 22:32N 38°50' E 000°15'4 0.7
2016-May-21 16:25N 38°45' E 000°15'3 2.9
2016-May-21 15:33N 38°44' E 000°18'5 4.9
2016-May-21 14:28N 38°40' E 000°13'41 2.6
2016-May-20 22:22N 38°51' E 001°04'8 0.3
2016-May-19 20:29N 38°45' E 001°12'12 1.0
2016-May-19 09:26N 38°51' E 000°59'8 1.1
2016-May-19 02:17N 38°47' E 001°08'1 1.5
2016-May-19 01:33N 38°47' E 001°09'1 0.9
2016-May-19 00:30N 38°46' E 001°08'1 0.9
2016-May-18 23:26N 38°45' E 001°07'3 4.0
2016-May-18 22:34N 38°43' E 001°04'5 5.2
2016-May-18 21:33N 38°38' E 001°02'6 5.7
2016-May-18 20:33N 38°32' E 001°00'9 6.3
2016-May-18 19:12N 38°32' E 000°49'22 4.8
2016-May-18 14:33N 38°18' E 000°27'3 2.9
2016-May-18 13:33N 38°21' E 000°29'5 5.0
2016-May-18 12:33N 38°25' E 000°27'2 2.5
2016-May-18 11:33N 38°28' E 000°28'3 3.1
2016-May-18 10:32N 38°31' E 000°29'1 0.8
2016-May-18 09:33N 38°31' E 000°29'10 2.0
2016-May-18 04:27N 38°28' E 000°17'12 1.4
2016-May-17 20:11N 38°33' E 000°04'1 0.9
2016-May-17 19:33N 38°32' E 000°04'1 0.9
2016-May-17 18:33N 38°31' E 000°04'1 1.0
2016-May-17 17:34N 38°31' E 000°05'5 4.7
2016-May-17 16:26N 38°26' E 000°08'21 1.7
2016-May-17 04:13N 38°24' W 000°19'2 0.3
2016-May-16 23:26N 38°24' W 000°17'0 0.3
2016-May-16 22:33N 38°24' W 000°16'0 0.2
2016-May-16 21:06N 38°24' W 000°16'1 0.3
2016-May-16 19:03N 38°24' W 000°15'0 0.3
2016-May-16 18:33N 38°24' W 000°15'3 3.0
2016-May-16 17:33N 38°21' W 000°14'6 6.2
2016-May-16 16:33N 38°15' W 000°10'7 6.3
2016-May-16 15:31N 38°10' W 000°06'4 3.7
2016-May-16 14:33N 38°08' W 000°03'1 0.7
2016-May-16 13:33N 38°08' W 000°02'3 3.2
2016-May-16 12:31N 38°07' W 000°06'7 5.8
2016-May-16 11:23N 38°06' W 000°14'2 1.7
2016-May-16 10:13N 38°07' W 000°12'2 1.4
2016-May-16 08:31N 38°09' W 000°14'4 3.3
2016-May-16 07:24N 38°13' W 000°14'4 1.4
2016-May-16 04:31N 38°17' W 000°15'0 0.4
2016-May-16 03:33N 38°17' W 000°14'0 0.3
2016-May-16 02:23N 38°17' W 000°14'1 0.3
2016-May-15 23:33N 38°18' W 000°15'1 0.5
2016-May-15 22:33N 38°18' W 000°16'1 0.5
2016-May-15 21:33N 38°18' W 000°16'0 0.5
2016-May-15 20:33N 38°18' W 000°17'2 2.1
2016-May-15 19:33N 38°17' W 000°14'6 5.7
2016-May-15 18:33N 38°14' W 000°09'7 6.3
2016-May-15 17:30N 38°10' W 000°02'5 5.5
2016-May-15 16:33N 38°06' E 000°03'1 1.0
2016-May-15 15:33N 38°06' E 000°02'1 0.7
2016-May-15 14:32N 38°05' E 000°01'3 2.9
2016-May-15 13:33N 38°04' W 000°02'14 1.9
2016-May-15 06:03N 38°01' W 000°20'2 3.1
2016-May-15 05:23N 37°60' W 000°22'4 5.1
2016-May-15 04:33N 37°59' W 000°27'0 0.3
2016-May-15 03:33N 37°59' W 000°27'1 0.5
2016-May-15 02:33N 37°60' W 000°28'1 0.6
2016-May-15 01:33N 37°60' W 000°28'  

Dump ship's entire track history